sensor_id;sensor_type;location;lat;lon;timestamp;P1;durP1;ratioP1;P2;durP2;ratioP2
68942;SDS011;60852;52.190;4.422;2022-12-29T00:02:15;3.64;;;3.64;;
68942;SDS011;60852;52.190;4.422;2022-12-29T00:04:41;3.48;;;3.48;;
68942;SDS011;60852;52.190;4.422;2022-12-29T00:07:07;3.20;;;3.20;;
68942;SDS011;60852;52.190;4.422;2022-12-29T00:09:33;3.16;;;3.16;;
68942;SDS011;60852;52.190;4.422;2022-12-29T00:12:00;3.00;;;3.00;;
68942;SDS011;60852;52.190;4.422;2022-12-29T00:14:27;2.69;;;2.69;;
68942;SDS011;60852;52.190;4.422;2022-12-29T00:17:11;2.66;;;2.66;;
68942;SDS011;60852;52.190;4.422;2022-12-29T00:19:37;2.61;;;2.61;;
68942;SDS011;60852;52.190;4.422;2022-12-29T00:22:21;2.61;;;2.61;;
68942;SDS011;60852;52.190;4.422;2022-12-29T00:25:07;2.46;;;2.46;;
68942;SDS011;60852;52.190;4.422;2022-12-29T00:27:53;2.47;;;2.47;;
68942;SDS011;60852;52.190;4.422;2022-12-29T00:30:37;2.57;;;2.57;;
68942;SDS011;60852;52.190;4.422;2022-12-29T00:33:22;2.40;;;2.40;;
68942;SDS011;60852;52.190;4.422;2022-12-29T00:36:13;2.31;;;2.31;;
68942;SDS011;60852;52.190;4.422;2022-12-29T00:38:45;2.24;;;2.24;;
68942;SDS011;60852;52.190;4.422;2022-12-29T00:41:36;2.16;;;2.16;;
68942;SDS011;60852;52.190;4.422;2022-12-29T00:44:20;2.11;;;2.11;;
68942;SDS011;60852;52.190;4.422;2022-12-29T00:46:45;1.83;;;1.83;;
68942;SDS011;60852;52.190;4.422;2022-12-29T00:49:11;2.05;;;2.05;;
68942;SDS011;60852;52.190;4.422;2022-12-29T00:52:07;1.95;;;1.95;;
68942;SDS011;60852;52.190;4.422;2022-12-29T00:54:38;1.91;;;1.91;;
68942;SDS011;60852;52.190;4.422;2022-12-29T00:57:06;1.87;;;1.87;;
68942;SDS011;60852;52.190;4.422;2022-12-29T00:59:40;1.93;;;1.93;;
68942;SDS011;60852;52.190;4.422;2022-12-29T01:02:07;1.86;;;1.86;;
68942;SDS011;60852;52.190;4.422;2022-12-29T01:04:34;1.82;;;1.82;;
68942;SDS011;60852;52.190;4.422;2022-12-29T01:06:59;2.13;;;2.13;;
68942;SDS011;60852;52.190;4.422;2022-12-29T01:09:25;1.99;;;1.99;;
68942;SDS011;60852;52.190;4.422;2022-12-29T01:12:10;2.01;;;2.01;;
68942;SDS011;60852;52.190;4.422;2022-12-29T01:14:36;1.94;;;1.94;;
68942;SDS011;60852;52.190;4.422;2022-12-29T01:17:02;1.84;;;1.84;;
68942;SDS011;60852;52.190;4.422;2022-12-29T01:19:29;1.92;;;1.92;;
68942;SDS011;60852;52.190;4.422;2022-12-29T01:21:54;1.81;;;1.81;;
68942;SDS011;60852;52.190;4.422;2022-12-29T01:24:20;1.81;;;1.81;;
68942;SDS011;60852;52.190;4.422;2022-12-29T01:26:46;1.88;;;1.88;;
68942;SDS011;60852;52.190;4.422;2022-12-29T01:29:13;1.71;;;1.71;;
68942;SDS011;60852;52.190;4.422;2022-12-29T01:31:39;1.72;;;1.72;;
68942;SDS011;60852;52.190;4.422;2022-12-29T01:34:05;1.60;;;1.60;;
68942;SDS011;60852;52.190;4.422;2022-12-29T01:36:31;1.70;;;1.70;;
68942;SDS011;60852;52.190;4.422;2022-12-29T01:38:57;1.75;;;1.75;;
68942;SDS011;60852;52.190;4.422;2022-12-29T01:41:22;1.58;;;1.58;;
68942;SDS011;60852;52.190;4.422;2022-12-29T01:43:52;1.38;;;1.37;;
68942;SDS011;60852;52.190;4.422;2022-12-29T01:51:48;2.04;;;1.79;;
68942;SDS011;60852;52.190;4.422;2022-12-29T01:54:20;2.06;;;1.74;;
68942;SDS011;60852;52.190;4.422;2022-12-29T01:56:51;2.44;;;1.99;;
68942;SDS011;60852;52.190;4.422;2022-12-29T01:59:19;2.83;;;2.23;;
68942;SDS011;60852;52.190;4.422;2022-12-29T02:01:50;3.09;;;2.34;;
68942;SDS011;60852;52.190;4.422;2022-12-29T02:04:16;3.19;;;2.34;;
68942;SDS011;60852;52.190;4.422;2022-12-29T02:06:47;3.65;;;2.56;;
68942;SDS011;60852;52.190;4.422;2022-12-29T02:09:19;4.28;;;2.93;;
68942;SDS011;60852;52.190;4.422;2022-12-29T02:11:45;4.20;;;2.92;;
68942;SDS011;60852;52.190;4.422;2022-12-29T02:14:12;4.02;;;2.78;;
68942;SDS011;60852;52.190;4.422;2022-12-29T02:33:38;3.99;;;2.61;;
68942;SDS011;60852;52.190;4.422;2022-12-29T02:44:55;5.88;;;3.72;;
68942;SDS011;60852;52.190;4.422;2022-12-29T02:47:36;6.55;;;4.03;;
68942;SDS011;60852;52.190;4.422;2022-12-29T02:50:31;6.23;;;3.78;;
68942;SDS011;60852;52.190;4.422;2022-12-29T02:53:15;6.24;;;3.83;;
68942;SDS011;60852;52.190;4.422;2022-12-29T02:56:07;6.56;;;4.00;;
68942;SDS011;60852;52.190;4.422;2022-12-29T02:58:33;7.14;;;4.41;;
68942;SDS011;60852;52.190;4.422;2022-12-29T03:04:03;8.02;;;4.97;;
68942;SDS011;60852;52.190;4.422;2022-12-29T03:09:36;8.57;;;5.35;;
68942;SDS011;60852;52.190;4.422;2022-12-29T03:15:24;9.39;;;5.80;;
68942;SDS011;60852;52.190;4.422;2022-12-29T03:24:38;8.36;;;5.17;;
68942;SDS011;60852;52.190;4.422;2022-12-29T03:27:09;7.47;;;4.60;;
68942;SDS011;60852;52.190;4.422;2022-12-29T03:29:41;7.97;;;4.91;;
68942;SDS011;60852;52.190;4.422;2022-12-29T03:32:18;7.48;;;4.61;;
68942;SDS011;60852;52.190;4.422;2022-12-29T03:34:48;8.01;;;4.98;;
68942;SDS011;60852;52.190;4.422;2022-12-29T03:37:16;9.01;;;5.54;;
68942;SDS011;60852;52.190;4.422;2022-12-29T03:39:48;8.87;;;5.55;;
68942;SDS011;60852;52.190;4.422;2022-12-29T03:42:15;8.06;;;5.09;;
68942;SDS011;60852;52.190;4.422;2022-12-29T03:44:45;8.06;;;5.10;;
68942;SDS011;60852;52.190;4.422;2022-12-29T03:47:12;8.59;;;5.51;;
68942;SDS011;60852;52.190;4.422;2022-12-29T03:49:39;8.16;;;5.24;;
68942;SDS011;60852;52.190;4.422;2022-12-29T03:52:05;8.20;;;5.26;;
68942;SDS011;60852;52.190;4.422;2022-12-29T03:54:31;7.32;;;4.76;;
68942;SDS011;60852;52.190;4.422;2022-12-29T03:56:57;7.50;;;4.88;;
68942;SDS011;60852;52.190;4.422;2022-12-29T03:59:23;7.38;;;4.80;;
68942;SDS011;60852;52.190;4.422;2022-12-29T04:01:49;9.18;;;5.79;;
68942;SDS011;60852;52.190;4.422;2022-12-29T04:04:15;8.48;;;5.23;;
68942;SDS011;60852;52.190;4.422;2022-12-29T04:06:40;9.38;;;5.74;;
68942;SDS011;60852;52.190;4.422;2022-12-29T04:09:06;9.36;;;5.66;;
68942;SDS011;60852;52.190;4.422;2022-12-29T04:11:32;9.47;;;5.72;;
68942;SDS011;60852;52.190;4.422;2022-12-29T04:13:57;8.86;;;5.39;;
68942;SDS011;60852;52.190;4.422;2022-12-29T04:16:23;9.78;;;5.93;;
68942;SDS011;60852;52.190;4.422;2022-12-29T04:18:48;10.07;;;6.11;;
68942;SDS011;60852;52.190;4.422;2022-12-29T04:21:13;10.26;;;6.20;;
68942;SDS011;60852;52.190;4.422;2022-12-29T04:23:39;11.61;;;7.00;;
68942;SDS011;60852;52.190;4.422;2022-12-29T04:26:05;13.27;;;7.95;;
68942;SDS011;60852;52.190;4.422;2022-12-29T04:28:32;14.34;;;8.56;;
68942;SDS011;60852;52.190;4.422;2022-12-29T04:30:58;12.88;;;7.67;;
68942;SDS011;60852;52.190;4.422;2022-12-29T04:33:24;12.33;;;7.38;;
68942;SDS011;60852;52.190;4.422;2022-12-29T04:35:50;13.06;;;7.88;;
68942;SDS011;60852;52.190;4.422;2022-12-29T04:38:17;12.50;;;7.51;;
68942;SDS011;60852;52.190;4.422;2022-12-29T04:40:42;13.08;;;7.78;;
68942;SDS011;60852;52.190;4.422;2022-12-29T04:43:09;12.81;;;7.67;;
68942;SDS011;60852;52.190;4.422;2022-12-29T04:45:35;10.96;;;6.55;;
68942;SDS011;60852;52.190;4.422;2022-12-29T04:48:00;11.06;;;6.59;;
68942;SDS011;60852;52.190;4.422;2022-12-29T04:50:26;10.29;;;6.17;;
68942;SDS011;60852;52.190;4.422;2022-12-29T04:52:51;9.07;;;5.50;;
68942;SDS011;60852;52.190;4.422;2022-12-29T04:55:17;8.95;;;5.49;;
68942;SDS011;60852;52.190;4.422;2022-12-29T04:57:42;9.90;;;6.07;;
68942;SDS011;60852;52.190;4.422;2022-12-29T05:00:08;9.78;;;6.04;;
68942;SDS011;60852;52.190;4.422;2022-12-29T05:02:34;9.94;;;6.17;;
68942;SDS011;60852;52.190;4.422;2022-12-29T05:05:01;9.09;;;5.69;;
68942;SDS011;60852;52.190;4.422;2022-12-29T05:07:26;9.64;;;5.99;;
68942;SDS011;60852;52.190;4.422;2022-12-29T05:09:51;10.40;;;6.45;;
68942;SDS011;60852;52.190;4.422;2022-12-29T05:12:17;10.10;;;6.35;;
68942;SDS011;60852;52.190;4.422;2022-12-29T05:14:42;10.98;;;6.81;;
68942;SDS011;60852;52.190;4.422;2022-12-29T05:17:08;11.65;;;7.08;;
68942;SDS011;60852;52.190;4.422;2022-12-29T05:19:33;11.30;;;6.83;;
68942;SDS011;60852;52.190;4.422;2022-12-29T05:21:59;11.72;;;7.00;;
68942;SDS011;60852;52.190;4.422;2022-12-29T05:24:24;11.70;;;7.02;;
68942;SDS011;60852;52.190;4.422;2022-12-29T05:26:50;10.59;;;6.38;;
68942;SDS011;60852;52.190;4.422;2022-12-29T05:29:15;10.54;;;6.33;;
68942;SDS011;60852;52.190;4.422;2022-12-29T05:31:40;10.63;;;6.45;;
68942;SDS011;60852;52.190;4.422;2022-12-29T05:34:06;10.51;;;6.36;;
68942;SDS011;60852;52.190;4.422;2022-12-29T05:36:31;11.07;;;6.71;;
68942;SDS011;60852;52.190;4.422;2022-12-29T05:38:57;10.25;;;6.28;;
68942;SDS011;60852;52.190;4.422;2022-12-29T05:41:22;10.08;;;6.22;;
68942;SDS011;60852;52.190;4.422;2022-12-29T05:43:48;11.39;;;7.01;;
68942;SDS011;60852;52.190;4.422;2022-12-29T05:46:14;10.90;;;6.64;;
68942;SDS011;60852;52.190;4.422;2022-12-29T05:48:39;10.00;;;6.11;;
68942;SDS011;60852;52.190;4.422;2022-12-29T05:51:05;10.77;;;6.58;;
68942;SDS011;60852;52.190;4.422;2022-12-29T05:53:38;10.34;;;6.42;;
68942;SDS011;60852;52.190;4.422;2022-12-29T05:56:04;10.29;;;6.49;;
68942;SDS011;60852;52.190;4.422;2022-12-29T05:58:30;11.40;;;7.04;;
68942;SDS011;60852;52.190;4.422;2022-12-29T06:01:05;11.19;;;6.88;;
68942;SDS011;60852;52.190;4.422;2022-12-29T06:03:30;12.63;;;7.71;;
68942;SDS011;60852;52.190;4.422;2022-12-29T06:05:56;11.48;;;6.98;;
68942;SDS011;60852;52.190;4.422;2022-12-29T06:08:22;11.74;;;7.14;;
68942;SDS011;60852;52.190;4.422;2022-12-29T06:10:47;13.18;;;7.85;;
68942;SDS011;60852;52.190;4.422;2022-12-29T06:13:13;12.85;;;7.70;;
68942;SDS011;60852;52.190;4.422;2022-12-29T06:15:39;12.17;;;7.33;;
68942;SDS011;60852;52.190;4.422;2022-12-29T06:18:04;13.24;;;7.90;;
68942;SDS011;60852;52.190;4.422;2022-12-29T06:20:30;12.71;;;7.68;;
68942;SDS011;60852;52.190;4.422;2022-12-29T06:22:55;12.62;;;7.59;;
68942;SDS011;60852;52.190;4.422;2022-12-29T06:25:21;13.40;;;8.00;;
68942;SDS011;60852;52.190;4.422;2022-12-29T06:27:46;14.70;;;8.74;;
68942;SDS011;60852;52.190;4.422;2022-12-29T06:30:12;15.93;;;9.41;;
68942;SDS011;60852;52.190;4.422;2022-12-29T06:32:38;14.71;;;8.81;;
68942;SDS011;60852;52.190;4.422;2022-12-29T06:35:04;17.24;;;10.23;;
68942;SDS011;60852;52.190;4.422;2022-12-29T06:37:31;14.77;;;8.84;;
68942;SDS011;60852;52.190;4.422;2022-12-29T06:39:57;16.39;;;9.64;;
68942;SDS011;60852;52.190;4.422;2022-12-29T06:42:23;17.00;;;9.99;;
68942;SDS011;60852;52.190;4.422;2022-12-29T06:44:49;16.14;;;9.63;;
68942;SDS011;60852;52.190;4.422;2022-12-29T06:47:14;18.22;;;10.74;;
68942;SDS011;60852;52.190;4.422;2022-12-29T06:49:40;16.75;;;9.89;;
68942;SDS011;60852;52.190;4.422;2022-12-29T06:52:06;17.44;;;10.38;;
68942;SDS011;60852;52.190;4.422;2022-12-29T06:54:31;18.98;;;11.18;;
68942;SDS011;60852;52.190;4.422;2022-12-29T06:56:57;18.16;;;10.77;;
68942;SDS011;60852;52.190;4.422;2022-12-29T06:59:23;19.76;;;11.69;;
68942;SDS011;60852;52.190;4.422;2022-12-29T07:01:49;19.71;;;11.62;;
68942;SDS011;60852;52.190;4.422;2022-12-29T07:04:15;20.76;;;12.23;;
68942;SDS011;60852;52.190;4.422;2022-12-29T07:06:40;20.21;;;11.77;;
68942;SDS011;60852;52.190;4.422;2022-12-29T07:09:06;18.72;;;11.02;;
68942;SDS011;60852;52.190;4.422;2022-12-29T07:11:32;17.82;;;10.64;;
68942;SDS011;60852;52.190;4.422;2022-12-29T07:13:59;18.40;;;10.98;;
68942;SDS011;60852;52.190;4.422;2022-12-29T07:16:24;17.82;;;10.61;;
68942;SDS011;60852;52.190;4.422;2022-12-29T07:18:50;16.39;;;9.88;;
68942;SDS011;60852;52.190;4.422;2022-12-29T07:21:16;15.65;;;9.48;;
68942;SDS011;60852;52.190;4.422;2022-12-29T07:23:42;15.30;;;9.26;;
68942;SDS011;60852;52.190;4.422;2022-12-29T07:26:09;16.34;;;9.86;;
68942;SDS011;60852;52.190;4.422;2022-12-29T07:28:38;15.44;;;9.27;;
68942;SDS011;60852;52.190;4.422;2022-12-29T07:31:04;15.04;;;9.10;;
68942;SDS011;60852;52.190;4.422;2022-12-29T07:33:30;14.98;;;9.03;;
68942;SDS011;60852;52.190;4.422;2022-12-29T07:35:57;15.61;;;9.43;;
68942;SDS011;60852;52.190;4.422;2022-12-29T07:38:24;15.78;;;9.57;;
68942;SDS011;60852;52.190;4.422;2022-12-29T07:40:50;14.46;;;8.72;;
68942;SDS011;60852;52.190;4.422;2022-12-29T07:43:15;14.86;;;9.04;;
68942;SDS011;60852;52.190;4.422;2022-12-29T07:45:41;14.79;;;9.00;;
68942;SDS011;60852;52.190;4.422;2022-12-29T07:48:06;14.84;;;9.09;;
68942;SDS011;60852;52.190;4.422;2022-12-29T07:50:33;15.12;;;9.15;;
68942;SDS011;60852;52.190;4.422;2022-12-29T07:52:59;15.52;;;9.29;;
68942;SDS011;60852;52.190;4.422;2022-12-29T07:55:25;14.64;;;8.76;;
68942;SDS011;60852;52.190;4.422;2022-12-29T07:57:52;14.22;;;8.57;;
68942;SDS011;60852;52.190;4.422;2022-12-29T08:00:18;14.78;;;8.90;;
68942;SDS011;60852;52.190;4.422;2022-12-29T08:02:44;15.03;;;8.92;;
68942;SDS011;60852;52.190;4.422;2022-12-29T08:05:09;14.99;;;9.04;;
68942;SDS011;60852;52.190;4.422;2022-12-29T08:07:35;13.84;;;8.34;;
68942;SDS011;60852;52.190;4.422;2022-12-29T08:10:00;14.74;;;8.88;;
68942;SDS011;60852;52.190;4.422;2022-12-29T08:12:26;13.67;;;8.35;;
68942;SDS011;60852;52.190;4.422;2022-12-29T08:14:52;13.76;;;8.44;;
68942;SDS011;60852;52.190;4.422;2022-12-29T08:17:17;14.11;;;8.50;;
68942;SDS011;60852;52.190;4.422;2022-12-29T08:19:43;14.73;;;8.93;;
68942;SDS011;60852;52.190;4.422;2022-12-29T08:22:08;15.17;;;9.18;;
68942;SDS011;60852;52.190;4.422;2022-12-29T08:24:34;14.08;;;8.49;;
68942;SDS011;60852;52.190;4.422;2022-12-29T08:27:00;15.27;;;9.18;;
68942;SDS011;60852;52.190;4.422;2022-12-29T08:29:25;16.94;;;10.06;;
68942;SDS011;60852;52.190;4.422;2022-12-29T08:31:51;15.75;;;9.50;;
68942;SDS011;60852;52.190;4.422;2022-12-29T08:34:17;14.50;;;8.77;;
68942;SDS011;60852;52.190;4.422;2022-12-29T08:36:42;13.79;;;8.36;;
68942;SDS011;60852;52.190;4.422;2022-12-29T08:39:08;14.63;;;8.97;;
68942;SDS011;60852;52.190;4.422;2022-12-29T08:41:33;13.48;;;8.25;;
68942;SDS011;60852;52.190;4.422;2022-12-29T08:43:59;13.39;;;8.10;;
68942;SDS011;60852;52.190;4.422;2022-12-29T08:46:24;13.99;;;8.52;;
68942;SDS011;60852;52.190;4.422;2022-12-29T08:48:50;13.18;;;8.05;;
68942;SDS011;60852;52.190;4.422;2022-12-29T08:51:15;12.99;;;7.83;;
68942;SDS011;60852;52.190;4.422;2022-12-29T08:53:42;14.46;;;8.84;;
68942;SDS011;60852;52.190;4.422;2022-12-29T08:56:08;14.59;;;8.80;;
68942;SDS011;60852;52.190;4.422;2022-12-29T08:58:35;14.13;;;8.58;;
68942;SDS011;60852;52.190;4.422;2022-12-29T09:01:01;14.60;;;8.91;;
68942;SDS011;60852;52.190;4.422;2022-12-29T09:03:26;16.29;;;9.91;;
68942;SDS011;60852;52.190;4.422;2022-12-29T09:05:53;19.31;;;11.69;;
68942;SDS011;60852;52.190;4.422;2022-12-29T09:08:20;21.00;;;12.72;;
68942;SDS011;60852;52.190;4.422;2022-12-29T09:10:47;17.75;;;10.80;;
68942;SDS011;60852;52.190;4.422;2022-12-29T09:13:13;16.39;;;10.04;;
68942;SDS011;60852;52.190;4.422;2022-12-29T09:15:40;17.27;;;10.38;;
68942;SDS011;60852;52.190;4.422;2022-12-29T09:18:06;17.77;;;10.68;;
68942;SDS011;60852;52.190;4.422;2022-12-29T09:20:33;17.31;;;10.38;;
68942;SDS011;60852;52.190;4.422;2022-12-29T09:22:59;18.41;;;11.01;;
68942;SDS011;60852;52.190;4.422;2022-12-29T09:25:25;17.38;;;10.42;;
68942;SDS011;60852;52.190;4.422;2022-12-29T09:27:51;17.37;;;10.47;;
68942;SDS011;60852;52.190;4.422;2022-12-29T09:30:19;19.67;;;11.85;;
68942;SDS011;60852;52.190;4.422;2022-12-29T09:32:47;21.10;;;12.52;;
68942;SDS011;60852;52.190;4.422;2022-12-29T09:35:14;22.03;;;13.09;;
68942;SDS011;60852;52.190;4.422;2022-12-29T09:37:41;21.74;;;13.00;;
68942;SDS011;60852;52.190;4.422;2022-12-29T09:40:07;23.12;;;13.79;;
68942;SDS011;60852;52.190;4.422;2022-12-29T09:42:51;24.00;;;14.25;;
68942;SDS011;60852;52.190;4.422;2022-12-29T09:45:26;26.86;;;16.00;;
68942;SDS011;60852;52.190;4.422;2022-12-29T09:48:03;25.29;;;15.10;;
68942;SDS011;60852;52.190;4.422;2022-12-29T09:50:31;27.22;;;16.18;;
68942;SDS011;60852;52.190;4.422;2022-12-29T09:53:04;26.40;;;15.81;;
68942;SDS011;60852;52.190;4.422;2022-12-29T09:55:47;27.17;;;16.00;;
68942;SDS011;60852;52.190;4.422;2022-12-29T09:58:26;29.73;;;17.44;;
68942;SDS011;60852;52.190;4.422;2022-12-29T10:01:22;26.20;;;15.74;;
68942;SDS011;60852;52.190;4.422;2022-12-29T10:03:56;27.88;;;16.84;;
68942;SDS011;60852;52.190;4.422;2022-12-29T10:06:27;30.93;;;18.22;;
68942;SDS011;60852;52.190;4.422;2022-12-29T10:09:01;28.14;;;16.78;;
68942;SDS011;60852;52.190;4.422;2022-12-29T10:15:02;30.14;;;17.88;;
68942;SDS011;60852;52.190;4.422;2022-12-29T10:17:48;26.46;;;15.79;;
68942;SDS011;60852;52.190;4.422;2022-12-29T10:20:51;29.38;;;17.39;;
68942;SDS011;60852;52.190;4.422;2022-12-29T10:24:02;29.82;;;17.63;;
68942;SDS011;60852;52.190;4.422;2022-12-29T10:26:26;33.50;;;19.97;;
68942;SDS011;60852;52.190;4.422;2022-12-29T10:28:57;28.43;;;17.03;;
68942;SDS011;60852;52.190;4.422;2022-12-29T10:31:40;29.62;;;17.57;;
68942;SDS011;60852;52.190;4.422;2022-12-29T10:34:14;25.43;;;15.38;;
68942;SDS011;60852;52.190;4.422;2022-12-29T10:36:49;25.50;;;15.38;;
68942;SDS011;60852;52.190;4.422;2022-12-29T10:41:51;26.43;;;15.37;;
68942;SDS011;60852;52.190;4.422;2022-12-29T10:44:39;26.86;;;15.77;;
68942;SDS011;60852;52.190;4.422;2022-12-29T10:47:06;27.16;;;16.01;;
68942;SDS011;60852;52.190;4.422;2022-12-29T10:49:38;22.93;;;13.70;;
68942;SDS011;60852;52.190;4.422;2022-12-29T10:52:08;20.20;;;12.16;;
68942;SDS011;60852;52.190;4.422;2022-12-29T10:54:40;20.79;;;12.56;;
68942;SDS011;60852;52.190;4.422;2022-12-29T10:59:56;18.26;;;10.96;;
68942;SDS011;60852;52.190;4.422;2022-12-29T11:02:25;19.78;;;11.60;;
68942;SDS011;60852;52.190;4.422;2022-12-29T11:08:02;21.27;;;12.34;;
68942;SDS011;60852;52.190;4.422;2022-12-29T11:10:38;19.73;;;11.70;;
68942;SDS011;60852;52.190;4.422;2022-12-29T11:13:12;19.11;;;11.29;;
68942;SDS011;60852;52.190;4.422;2022-12-29T11:18:18;16.89;;;10.05;;
68942;SDS011;60852;52.190;4.422;2022-12-29T11:20:46;16.39;;;9.81;;
68942;SDS011;60852;52.190;4.422;2022-12-29T11:28:39;17.83;;;10.64;;
68942;SDS011;60852;52.190;4.422;2022-12-29T11:31:07;17.25;;;10.18;;
68942;SDS011;60852;52.190;4.422;2022-12-29T11:33:35;17.10;;;10.11;;
68942;SDS011;60852;52.190;4.422;2022-12-29T11:36:03;15.59;;;9.52;;
68942;SDS011;60852;52.190;4.422;2022-12-29T11:38:36;15.47;;;9.42;;
68942;SDS011;60852;52.190;4.422;2022-12-29T11:41:06;15.33;;;9.16;;
68942;SDS011;60852;52.190;4.422;2022-12-29T11:43:39;16.18;;;9.50;;
68942;SDS011;60852;52.190;4.422;2022-12-29T11:46:14;14.54;;;8.65;;
68942;SDS011;60852;52.190;4.422;2022-12-29T11:48:48;15.08;;;9.01;;
68942;SDS011;60852;52.190;4.422;2022-12-29T11:51:25;13.04;;;7.91;;
68942;SDS011;60852;52.190;4.422;2022-12-29T11:53:58;13.54;;;8.30;;
68942;SDS011;60852;52.190;4.422;2022-12-29T11:56:34;15.11;;;9.09;;
68942;SDS011;60852;52.190;4.422;2022-12-29T12:01:57;14.58;;;8.75;;
68942;SDS011;60852;52.190;4.422;2022-12-29T12:04:26;15.45;;;9.38;;
68942;SDS011;60852;52.190;4.422;2022-12-29T12:07:12;12.04;;;7.30;;
68942;SDS011;60852;52.190;4.422;2022-12-29T12:09:45;12.84;;;7.71;;
68942;SDS011;60852;52.190;4.422;2022-12-29T12:15:22;13.56;;;8.26;;
68942;SDS011;60852;52.190;4.422;2022-12-29T12:18:03;12.00;;;7.36;;
68942;SDS011;60852;52.190;4.422;2022-12-29T12:28:49;12.07;;;7.46;;
68942;SDS011;60852;52.190;4.422;2022-12-29T12:34:28;12.81;;;7.90;;
68942;SDS011;60852;52.190;4.422;2022-12-29T13:05:04;14.79;;;8.78;;
68942;SDS011;60852;52.190;4.422;2022-12-29T13:08:10;14.83;;;8.80;;
68942;SDS011;60852;52.190;4.422;2022-12-29T13:13:50;14.60;;;8.71;;
68942;SDS011;60852;52.190;4.422;2022-12-29T13:21:57;12.88;;;7.81;;
68942;SDS011;60852;52.190;4.422;2022-12-29T13:27:43;14.02;;;8.50;;
68942;SDS011;60852;52.190;4.422;2022-12-29T13:30:33;12.27;;;7.50;;
68942;SDS011;60852;52.190;4.422;2022-12-29T13:35:56;13.25;;;8.10;;
68942;SDS011;60852;52.190;4.422;2022-12-29T13:38:30;13.78;;;8.42;;
68942;SDS011;60852;52.190;4.422;2022-12-29T13:41:03;13.26;;;8.01;;
68942;SDS011;60852;52.190;4.422;2022-12-29T13:43:34;12.64;;;7.58;;
68942;SDS011;60852;52.190;4.422;2022-12-29T13:46:06;14.03;;;8.53;;
68942;SDS011;60852;52.190;4.422;2022-12-29T13:48:43;14.08;;;8.54;;
68942;SDS011;60852;52.190;4.422;2022-12-29T13:51:15;16.37;;;9.73;;
68942;SDS011;60852;52.190;4.422;2022-12-29T13:53:59;17.86;;;10.62;;
68942;SDS011;60852;52.190;4.422;2022-12-29T14:02:19;13.16;;;8.01;;
68942;SDS011;60852;52.190;4.422;2022-12-29T14:07:35;13.48;;;8.09;;
68942;SDS011;60852;52.190;4.422;2022-12-29T14:10:03;10.63;;;6.47;;
68942;SDS011;60852;52.190;4.422;2022-12-29T14:17:36;11.20;;;6.87;;
68942;SDS011;60852;52.190;4.422;2022-12-29T14:20:05;11.15;;;6.91;;
68942;SDS011;60852;52.190;4.422;2022-12-29T14:23:00;11.62;;;7.35;;
68942;SDS011;60852;52.190;4.422;2022-12-29T14:28:30;12.82;;;7.80;;
68942;SDS011;60852;52.190;4.422;2022-12-29T14:31:01;12.89;;;7.85;;
68942;SDS011;60852;52.190;4.422;2022-12-29T14:33:32;13.23;;;7.91;;
68942;SDS011;60852;52.190;4.422;2022-12-29T14:38:45;14.80;;;8.85;;
68942;SDS011;60852;52.190;4.422;2022-12-29T14:41:23;12.76;;;7.75;;
68942;SDS011;60852;52.190;4.422;2022-12-29T14:43:54;13.33;;;8.06;;
68942;SDS011;60852;52.190;4.422;2022-12-29T14:49:27;13.91;;;8.35;;
68942;SDS011;60852;52.190;4.422;2022-12-29T14:54:47;12.10;;;7.57;;
68942;SDS011;60852;52.190;4.422;2022-12-29T14:57:22;12.44;;;7.72;;
68942;SDS011;60852;52.190;4.422;2022-12-29T14:59:54;14.08;;;8.60;;
68942;SDS011;60852;52.190;4.422;2022-12-29T15:02:26;15.43;;;9.31;;
68942;SDS011;60852;52.190;4.422;2022-12-29T15:05:03;17.02;;;10.46;;
68942;SDS011;60852;52.190;4.422;2022-12-29T15:07:31;16.06;;;9.99;;
68942;SDS011;60852;52.190;4.422;2022-12-29T15:10:07;15.29;;;9.55;;
68942;SDS011;60852;52.190;4.422;2022-12-29T15:12:41;16.02;;;10.23;;
68942;SDS011;60852;52.190;4.422;2022-12-29T15:15:26;14.78;;;9.41;;
68942;SDS011;60852;52.190;4.422;2022-12-29T15:17:56;13.77;;;8.66;;
68942;SDS011;60852;52.190;4.422;2022-12-29T15:22:57;15.07;;;9.05;;
68942;SDS011;60852;52.190;4.422;2022-12-29T15:25:28;16.60;;;9.93;;
68942;SDS011;60852;52.190;4.422;2022-12-29T15:27:57;17.87;;;10.80;;
68942;SDS011;60852;52.190;4.422;2022-12-29T15:30:28;17.18;;;10.46;;
68942;SDS011;60852;52.190;4.422;2022-12-29T15:32:58;14.28;;;8.89;;
68942;SDS011;60852;52.190;4.422;2022-12-29T15:35:26;15.01;;;9.21;;
68942;SDS011;60852;52.190;4.422;2022-12-29T15:38:23;14.34;;;8.69;;
68942;SDS011;60852;52.190;4.422;2022-12-29T15:40:56;12.69;;;7.79;;
68942;SDS011;60852;52.190;4.422;2022-12-29T15:46:38;14.06;;;8.54;;
68942;SDS011;60852;52.190;4.422;2022-12-29T15:49:05;14.10;;;8.75;;
68942;SDS011;60852;52.190;4.422;2022-12-29T15:51:35;13.05;;;8.17;;
68942;SDS011;60852;52.190;4.422;2022-12-29T15:54:06;13.45;;;8.61;;
68942;SDS011;60852;52.190;4.422;2022-12-29T15:56:43;11.92;;;7.84;;
68942;SDS011;60852;52.190;4.422;2022-12-29T16:01:59;11.71;;;7.39;;
68942;SDS011;60852;52.190;4.422;2022-12-29T16:04:29;11.50;;;7.20;;
68942;SDS011;60852;52.190;4.422;2022-12-29T16:07:01;12.84;;;7.93;;
68942;SDS011;60852;52.190;4.422;2022-12-29T16:09:30;13.40;;;8.16;;
68942;SDS011;60852;52.190;4.422;2022-12-29T16:12:02;12.94;;;7.97;;
68942;SDS011;60852;52.190;4.422;2022-12-29T16:14:36;12.79;;;8.01;;
68942;SDS011;60852;52.190;4.422;2022-12-29T16:17:09;12.99;;;8.17;;
68942;SDS011;60852;52.190;4.422;2022-12-29T16:19:48;13.90;;;8.65;;
68942;SDS011;60852;52.190;4.422;2022-12-29T16:22:25;15.10;;;9.40;;
68942;SDS011;60852;52.190;4.422;2022-12-29T16:25:03;15.54;;;9.49;;
68942;SDS011;60852;52.190;4.422;2022-12-29T16:27:39;16.11;;;10.05;;
68942;SDS011;60852;52.190;4.422;2022-12-29T16:30:16;15.09;;;9.55;;
68942;SDS011;60852;52.190;4.422;2022-12-29T16:32:59;14.61;;;9.30;;
68942;SDS011;60852;52.190;4.422;2022-12-29T16:35:28;17.57;;;11.03;;
68942;SDS011;60852;52.190;4.422;2022-12-29T16:38:13;17.53;;;10.78;;
68942;SDS011;60852;52.190;4.422;2022-12-29T16:40:51;18.08;;;11.07;;
68942;SDS011;60852;52.190;4.422;2022-12-29T16:43:26;16.21;;;10.08;;
68942;SDS011;60852;52.190;4.422;2022-12-29T16:48:33;15.18;;;9.45;;
68942;SDS011;60852;52.190;4.422;2022-12-29T16:51:29;13.75;;;8.55;;
68942;SDS011;60852;52.190;4.422;2022-12-29T16:53:57;12.39;;;7.70;;
68942;SDS011;60852;52.190;4.422;2022-12-29T16:56:26;13.91;;;8.70;;
68942;SDS011;60852;52.190;4.422;2022-12-29T16:59:04;14.37;;;8.95;;
68942;SDS011;60852;52.190;4.422;2022-12-29T17:01:39;14.02;;;8.77;;
68942;SDS011;60852;52.190;4.422;2022-12-29T17:04:06;15.33;;;9.46;;
68942;SDS011;60852;52.190;4.422;2022-12-29T17:06:36;14.94;;;9.15;;
68942;SDS011;60852;52.190;4.422;2022-12-29T17:09:02;15.00;;;9.15;;
68942;SDS011;60852;52.190;4.422;2022-12-29T17:11:38;14.60;;;9.09;;
68942;SDS011;60852;52.190;4.422;2022-12-29T17:17:10;13.02;;;8.17;;
68942;SDS011;60852;52.190;4.422;2022-12-29T17:19:54;12.75;;;8.00;;
68942;SDS011;60852;52.190;4.422;2022-12-29T17:22:25;12.52;;;7.80;;
68942;SDS011;60852;52.190;4.422;2022-12-29T17:24:53;12.07;;;7.53;;
68942;SDS011;60852;52.190;4.422;2022-12-29T17:27:30;12.22;;;7.57;;
68942;SDS011;60852;52.190;4.422;2022-12-29T17:29:58;12.94;;;7.93;;
68942;SDS011;60852;52.190;4.422;2022-12-29T17:32:29;12.82;;;7.84;;
68942;SDS011;60852;52.190;4.422;2022-12-29T17:34:55;12.12;;;7.58;;
68942;SDS011;60852;52.190;4.422;2022-12-29T17:39:49;11.74;;;7.42;;
68942;SDS011;60852;52.190;4.422;2022-12-29T17:42:14;11.42;;;7.46;;
68942;SDS011;60852;52.190;4.422;2022-12-29T17:44:42;11.91;;;7.91;;